createdAt,value
2022-11-24T00:02:00.672Z,78.77
2022-11-24T00:07:09.350Z,73.97
2022-11-24T00:12:17.123Z,78.87
2022-11-24T00:17:25.249Z,77.60
2022-11-24T00:22:33.889Z,76.97
2022-11-24T00:27:42.581Z,63.17
2022-11-24T00:32:50.837Z,63.27
2022-11-24T00:38:00.791Z,74.00
2022-11-24T00:43:08.507Z,66.03
2022-11-24T00:48:15.940Z,69.60
2022-11-24T00:53:23.712Z,67.37
2022-11-24T00:58:32.861Z,69.93
2022-11-24T01:03:41.240Z,77.83
2022-11-24T01:08:48.778Z,84.23
2022-11-24T01:13:58.348Z,74.97
2022-11-24T01:19:06.334Z,83.10
2022-11-24T01:24:15.852Z,78.33
2022-11-24T01:29:23.945Z,91.23
2022-11-24T01:34:33.054Z,71.53
2022-11-24T01:39:40.959Z,78.80
2022-11-24T01:44:49.643Z,81.50
2022-11-24T01:49:58.807Z,91.40
2022-11-24T01:55:11.633Z,82.73
2022-11-24T02:00:20.161Z,76.83
2022-11-24T02:05:42.724Z,80.20
2022-11-24T02:10:50.839Z,73.10
2022-11-24T02:15:58.830Z,79.83
2022-11-24T02:21:06.536Z,65.90
2022-11-24T02:26:45.095Z,75.23
2022-11-24T02:31:58.302Z,79.83
2022-11-24T02:37:06.122Z,84.53
2022-11-24T02:42:13.962Z,70.80
2022-11-24T02:47:22.221Z,66.33
2022-11-24T02:52:29.942Z,64.20
2022-11-24T02:57:37.825Z,70.10
2022-11-24T03:02:48.187Z,68.53
2022-11-24T03:07:58.362Z,78.17
2022-11-24T03:13:06.130Z,85.00
2022-11-24T03:18:14.740Z,72.97
2022-11-24T03:23:22.452Z,69.40
2022-11-24T03:28:31.497Z,80.00
2022-11-24T03:33:40.419Z,72.70
2022-11-24T03:38:48.501Z,75.60
2022-11-24T03:43:56.221Z,70.93
2022-11-24T03:49:04.116Z,80.60
2022-11-24T03:54:13.463Z,77.93
2022-11-24T03:59:21.222Z,78.03
2022-11-24T04:04:29.003Z,66.40
2022-11-24T04:09:36.872Z,65.53
2022-11-24T04:14:45.538Z,71.47
2022-11-24T04:19:53.245Z,68.50
2022-11-24T04:25:01.758Z,75.87
2022-11-24T04:30:10.865Z,65.33
2022-11-24T04:35:18.650Z,74.70
2022-11-24T04:40:26.405Z,74.43
2022-11-24T04:45:36.655Z,76.67
2022-11-24T04:50:43.928Z,68.80
2022-11-24T04:55:51.788Z,76.77
2022-11-24T05:00:59.486Z,76.87
2022-11-24T05:06:09.238Z,73.20
2022-11-24T05:11:17.055Z,75.47
2022-11-24T05:16:24.789Z,76.40
2022-11-24T05:21:33.198Z,67.83
2022-11-24T05:26:40.979Z,72.87
2022-11-24T05:31:49.337Z,72.57
2022-11-24T05:37:00.312Z,70.37
2022-11-24T05:42:26.304Z,70.33
2022-11-24T05:47:34.336Z,69.73
2022-11-24T05:52:42.102Z,71.07
2022-11-24T05:57:49.692Z,69.50
2022-11-24T06:02:58.778Z,70.27
2022-11-24T06:08:06.863Z,71.00
2022-11-24T06:13:14.415Z,78.87
2022-11-24T06:18:22.303Z,79.83
2022-11-24T06:23:30.127Z,72.73
2022-11-24T06:28:38.630Z,78.63
2022-11-24T06:33:47.950Z,77.90
2022-11-24T06:38:56.342Z,70.33
2022-11-24T06:44:05.470Z,89.73
2022-11-24T06:49:13.283Z,85.73
2022-11-24T06:54:22.597Z,87.30
2022-11-24T06:59:30.356Z,101.43
2022-11-24T07:04:37.980Z,93.67
2022-11-24T07:09:46.197Z,102.20
2022-11-24T07:14:53.921Z,93.53
2022-11-24T07:20:02.209Z,102.50
2022-11-24T07:25:10.560Z,129.23
2022-11-24T07:30:18.528Z,134.77
2022-11-24T07:35:27.141Z,169.40
2022-11-24T07:40:35.421Z,178.03
2022-11-24T07:45:43.176Z,159.77
2022-11-24T07:50:55.473Z,174.70
2022-11-24T07:56:01.287Z,181.03
2022-11-24T08:01:17.473Z,213.90
2022-11-24T08:06:29.070Z,212.57
2022-11-24T08:11:35.058Z,193.67
2022-11-24T08:16:42.914Z,210.83
2022-11-24T08:21:50.916Z,174.63
2022-11-24T08:26:59.669Z,153.97
2022-11-24T08:32:07.921Z,152.13
2022-11-24T08:37:17.400Z,152.33
2022-11-24T08:42:26.070Z,152.43
2022-11-24T08:47:34.057Z,143.43
2022-11-24T08:52:42.559Z,127.87
2022-11-24T08:57:50.249Z,128.80
2022-11-24T09:02:58.216Z,130.27
2022-11-24T09:08:06.983Z,111.10
2022-11-24T09:13:15.524Z,117.20
2022-11-24T09:18:27.589Z,117.50
2022-11-24T09:23:33.051Z,97.67
2022-11-24T09:28:41.133Z,106.30
2022-11-24T09:33:48.765Z,99.03
2022-11-24T09:38:58.472Z,102.60
2022-11-24T09:44:17.582Z,101.10
2022-11-24T09:49:51.055Z,121.23
2022-11-24T09:54:58.583Z,83.83
2022-11-24T10:00:09.561Z,98.50
2022-11-24T10:05:17.731Z,181.93
2022-11-24T10:10:27.198Z,104.13
2022-11-24T10:15:38.622Z,103.50
2022-11-24T10:21:26.117Z,97.30
2022-11-24T10:26:40.512Z,108.13
2022-11-24T10:31:48.552Z,90.03
2022-11-24T10:37:03.800Z,113.20
2022-11-24T10:42:20.319Z,104.93
2022-11-24T10:47:28.075Z,90.60
2022-11-24T10:52:43.957Z,96.87
2022-11-24T10:57:51.662Z,102.77
2022-11-24T11:03:22.053Z,82.27
2022-11-24T11:08:31.148Z,108.60
2022-11-24T11:13:39.102Z,98.27
2022-11-24T11:18:48.182Z,94.00
2022-11-24T11:23:57.017Z,97.97
2022-11-24T11:34:28.596Z,96.80
2022-11-24T11:39:37.929Z,113.33
2022-11-24T11:44:56.280Z,93.83
2022-11-24T11:50:05.351Z,90.90
2022-11-24T11:55:24.838Z,103.60
2022-11-24T12:00:33.467Z,97.50
2022-11-24T12:06:04.282Z,89.27
2022-11-24T12:11:25.179Z,98.37
2022-11-24T12:17:01.224Z,98.90
2022-11-24T12:22:27.103Z,93.20
2022-11-24T12:27:47.529Z,91.00
2022-11-24T12:33:13.803Z,93.23
2022-11-24T12:38:33.483Z,89.80
2022-11-24T12:43:42.235Z,90.77
2022-11-24T12:49:14.921Z,98.87
2022-11-24T12:54:22.790Z,88.70
2022-11-24T12:59:37.193Z,98.80
2022-11-24T13:04:50.339Z,82.70
2022-11-24T13:10:54.114Z,88.80
2022-11-24T13:16:35.302Z,92.20
2022-11-24T13:21:27.390Z,108.17
2022-11-24T13:26:45.564Z,89.90
2022-11-24T13:31:53.497Z,94.20
2022-11-24T13:37:32.102Z,101.43
2022-11-24T13:42:41.137Z,100.50
2022-11-24T13:47:41.563Z,98.63
2022-11-24T13:52:52.739Z,100.70
2022-11-24T13:58:16.010Z,101.93
2022-11-24T14:03:30.365Z,123.50
2022-11-24T14:08:38.450Z,96.10
2022-11-24T14:13:46.209Z,95.23
2022-11-24T14:18:55.294Z,89.23
2022-11-24T14:24:06.209Z,86.47
2022-11-24T14:29:20.757Z,95.47
2022-11-24T14:34:30.949Z,87.40
2022-11-24T14:39:42.229Z,107.37
2022-11-24T14:44:55.909Z,94.03
2022-11-24T14:50:14.622Z,99.67
2022-11-24T14:55:31.819Z,113.43
2022-11-24T15:00:39.697Z,112.40
2022-11-24T15:05:59.899Z,258.63
2022-11-24T15:11:07.786Z,143.60
2022-11-24T15:16:20.152Z,114.03
2022-11-24T15:21:36.518Z,139.50
2022-11-24T15:26:44.359Z,143.03
2022-11-24T15:31:53.085Z,114.57
2022-11-24T15:37:01.490Z,142.00
2022-11-24T15:42:10.910Z,109.73
2022-11-24T15:47:19.398Z,98.40
2022-11-24T15:52:27.181Z,103.00
2022-11-24T15:57:35.715Z,83.17
2022-11-24T16:02:43.728Z,91.80
2022-11-24T16:07:51.429Z,100.53
2022-11-24T16:12:59.163Z,106.53
2022-11-24T16:18:07.511Z,134.80
2022-11-24T16:23:15.269Z,121.17
2022-11-24T16:28:24.016Z,125.27
2022-11-24T16:33:32.053Z,117.63
2022-11-24T16:38:39.768Z,131.33
2022-11-24T16:43:47.513Z,174.27
2022-11-24T16:48:55.785Z,175.77
2022-11-24T16:54:03.965Z,153.07
2022-11-24T16:59:12.340Z,161.87
2022-11-24T17:04:20.057Z,139.80
2022-11-24T17:09:28.772Z,154.57
2022-11-24T17:14:37.243Z,133.33
2022-11-24T17:19:45.295Z,138.53
2022-11-24T17:24:53.046Z,169.77
2022-11-24T17:30:01.617Z,162.63
2022-11-24T17:35:09.671Z,140.57
2022-11-24T17:40:28.383Z,136.57
2022-11-24T17:45:35.356Z,137.50
2022-11-24T17:50:43.372Z,128.07
2022-11-24T17:55:55.872Z,115.33
2022-11-24T18:01:07.830Z,118.97
2022-11-24T18:06:17.339Z,131.93
2022-11-24T18:11:31.776Z,134.83
2022-11-24T18:16:41.528Z,143.70
2022-11-24T18:21:49.750Z,139.50
2022-11-24T18:26:57.523Z,150.27
2022-11-24T18:32:05.632Z,148.97
2022-11-24T18:37:15.066Z,167.30
2022-11-24T18:42:24.861Z,137.27
2022-11-24T18:47:34.054Z,143.30
2022-11-24T18:52:42.240Z,140.57
2022-11-24T18:57:51.091Z,138.63
2022-11-24T19:03:02.410Z,125.07
2022-11-24T19:08:10.458Z,159.70
2022-11-24T19:13:18.275Z,159.63
2022-11-24T19:18:26.049Z,186.70
2022-11-24T19:23:33.876Z,139.40
2022-11-24T19:28:41.937Z,168.73
2022-11-24T19:33:50.645Z,160.03
2022-11-24T19:38:59.930Z,176.77
2022-11-24T19:44:08.355Z,162.30
2022-11-24T19:49:16.775Z,173.60
2022-11-24T19:54:26.358Z,144.47
2022-11-24T19:59:34.700Z,134.60
2022-11-24T20:04:44.239Z,130.17
2022-11-24T20:09:52.015Z,172.30
2022-11-24T20:15:00.519Z,209.23
2022-11-24T20:20:08.954Z,182.97
2022-11-24T20:25:16.953Z,185.07
2022-11-24T20:30:27.044Z,209.50
2022-11-24T20:35:37.114Z,204.77
2022-11-24T20:40:44.776Z,195.37
2022-11-24T20:45:52.820Z,194.53
2022-11-24T20:51:11.496Z,191.83
2022-11-24T20:56:21.888Z,193.77
2022-11-24T21:01:33.806Z,157.93
2022-11-24T21:06:42.338Z,136.03
2022-11-24T21:11:51.005Z,138.20
2022-11-24T21:16:58.862Z,158.13
2022-11-24T21:22:07.551Z,168.40
2022-11-24T21:27:15.265Z,162.43
2022-11-24T21:32:23.311Z,169.53
2022-11-24T21:37:31.606Z,194.60
2022-11-24T21:42:39.414Z,161.87
2022-11-24T21:47:48.028Z,161.43
2022-11-24T21:53:00.588Z,201.93
2022-11-24T21:58:07.136Z,208.43
2022-11-24T22:03:14.869Z,223.87
2022-11-24T22:08:23.598Z,195.63
2022-11-24T22:13:31.739Z,193.90
2022-11-24T22:18:41.058Z,175.13
2022-11-24T22:23:51.048Z,146.40
2022-11-24T22:28:59.196Z,154.97
2022-11-24T22:34:07.291Z,188.73
2022-11-24T22:39:15.031Z,170.13
2022-11-24T22:44:22.752Z,172.63
2022-11-24T22:49:30.792Z,149.70
2022-11-24T22:54:38.609Z,142.27
2022-11-24T22:59:46.578Z,166.13
2022-11-24T23:04:54.838Z,164.90
2022-11-24T23:10:04.215Z,173.33
2022-11-24T23:15:12.209Z,170.03
2022-11-24T23:20:20.260Z,189.13
2022-11-24T23:25:28.821Z,160.07
2022-11-24T23:30:36.506Z,223.13
2022-11-24T23:35:44.214Z,216.63
2022-11-24T23:40:51.959Z,175.93
2022-11-24T23:46:08.341Z,185.27
2022-11-24T23:51:21.302Z,181.18
2022-11-24T23:56:32.939Z,223.33
